sensor_id;sensor_type;location;lat;lon;timestamp;pressure;altitude;pressure_sealevel;temperature;humidity
12897;BME280;6516;35.028;32.372;2023-04-04T00:00:28;99595.25;;;11.57;91.75
12897;BME280;6516;35.028;32.372;2023-04-04T00:02:56;99586.50;;;11.55;91.23
12897;BME280;6516;35.028;32.372;2023-04-04T00:05:24;99589.09;;;11.56;91.00
12897;BME280;6516;35.028;32.372;2023-04-04T00:07:53;99578.34;;;11.64;90.34
12897;BME280;6516;35.028;32.372;2023-04-04T00:10:20;99577.41;;;11.65;89.88
12897;BME280;6516;35.028;32.372;2023-04-04T00:12:48;99577.53;;;11.62;89.28
12897;BME280;6516;35.028;32.372;2023-04-04T00:15:16;99571.97;;;11.71;88.71
12897;BME280;6516;35.028;32.372;2023-04-04T00:17:45;99573.41;;;11.81;84.60
12897;BME280;6516;35.028;32.372;2023-04-04T00:20:13;99566.97;;;11.89;82.06
12897;BME280;6516;35.028;32.372;2023-04-04T00:22:41;99562.88;;;12.07;75.83
12897;BME280;6516;35.028;32.372;2023-04-04T00:25:09;99555.34;;;12.21;72.64
12897;BME280;6516;35.028;32.372;2023-04-04T00:27:37;99552.72;;;12.21;70.34
12897;BME280;6516;35.028;32.372;2023-04-04T00:30:12;99554.47;;;12.20;70.12
12897;BME280;6516;35.028;32.372;2023-04-04T00:32:40;99543.88;;;12.22;67.57
12897;BME280;6516;35.028;32.372;2023-04-04T00:35:09;99544.09;;;12.16;67.24
12897;BME280;6516;35.028;32.372;2023-04-04T00:37:37;99539.78;;;12.13;66.25
12897;BME280;6516;35.028;32.372;2023-04-04T00:40:06;99539.78;;;12.13;64.65
12897;BME280;6516;35.028;32.372;2023-04-04T00:42:35;99538.03;;;12.12;63.81
12897;BME280;6516;35.028;32.372;2023-04-04T00:45:03;99542.31;;;12.16;61.23
12897;BME280;6516;35.028;32.372;2023-04-04T00:47:33;99533.53;;;12.16;61.60
12897;BME280;6516;35.028;32.372;2023-04-04T00:50:01;99538.03;;;12.12;62.86
12897;BME280;6516;35.028;32.372;2023-04-04T00:52:30;99530.28;;;12.08;63.40
12897;BME280;6516;35.028;32.372;2023-04-04T00:54:59;99526.69;;;12.10;60.61
12897;BME280;6516;35.028;32.372;2023-04-04T00:57:27;99525.88;;;12.08;60.17
12897;BME280;6516;35.028;32.372;2023-04-04T00:59:56;99524.28;;;12.04;61.62
12897;BME280;6516;35.028;32.372;2023-04-04T01:02:24;99515.75;;;11.96;61.07
12897;BME280;6516;35.028;32.372;2023-04-04T01:04:53;99512.94;;;12.01;58.74
12897;BME280;6516;35.028;32.372;2023-04-04T01:07:20;99509.34;;;12.03;58.81
12897;BME280;6516;35.028;32.372;2023-04-04T01:09:51;99509.28;;;12.05;58.58
12897;BME280;6516;35.028;32.372;2023-04-04T01:12:19;99502.19;;;12.07;57.74
12897;BME280;6516;35.028;32.372;2023-04-04T01:14:46;99498.59;;;12.09;57.87
12897;BME280;6516;35.028;32.372;2023-04-04T01:17:14;99501.09;;;12.12;57.55
12897;BME280;6516;35.028;32.372;2023-04-04T01:19:47;99498.69;;;12.06;59.19
12897;BME280;6516;35.028;32.372;2023-04-04T01:22:20;99491.81;;;12.01;59.58
12897;BME280;6516;35.028;32.372;2023-04-04T01:24:50;99486.47;;;12.04;58.72
12897;BME280;6516;35.028;32.372;2023-04-04T01:27:23;99481.44;;;11.96;58.54
12897;BME280;6516;35.028;32.372;2023-04-04T01:29:51;99478.44;;;12.07;56.44
12897;BME280;6516;35.028;32.372;2023-04-04T01:32:20;99474.84;;;12.09;57.31
12897;BME280;6516;35.028;32.372;2023-04-04T01:34:59;99467.06;;;12.05;57.96
12897;BME280;6516;35.028;32.372;2023-04-04T01:37:35;99467.19;;;12.02;58.30
12897;BME280;6516;35.028;32.372;2023-04-04T01:40:11;99462.03;;;11.99;60.32
12897;BME280;6516;35.028;32.372;2023-04-04T01:42:45;99457.53;;;12.01;59.22
12897;BME280;6516;35.028;32.372;2023-04-04T01:45:13;99454.06;;;12.00;59.90
12897;BME280;6516;35.028;32.372;2023-04-04T01:47:42;99453.84;;;12.06;59.08
12897;BME280;6516;35.028;32.372;2023-04-04T01:50:10;99445.03;;;12.06;60.25
12897;BME280;6516;35.028;32.372;2023-04-04T01:52:38;99441.25;;;12.14;59.36
12897;BME280;6516;35.028;32.372;2023-04-04T01:55:06;99440.97;;;12.22;59.18
12897;BME280;6516;35.028;32.372;2023-04-04T01:57:34;99427.78;;;12.22;60.26
12897;BME280;6516;35.028;32.372;2023-04-04T02:00:04;99434.03;;;12.19;61.10
12897;BME280;6516;35.028;32.372;2023-04-04T02:02:34;99434.91;;;12.20;61.35
12897;BME280;6516;35.028;32.372;2023-04-04T02:05:01;99427.78;;;12.22;61.84
12897;BME280;6516;35.028;32.372;2023-04-04T02:07:29;99420.81;;;12.19;61.88
12897;BME280;6516;35.028;32.372;2023-04-04T02:09:57;99422.50;;;12.22;61.19
12897;BME280;6516;35.028;32.372;2023-04-04T02:12:26;99422.50;;;12.22;60.75
12897;BME280;6516;35.028;32.372;2023-04-04T02:14:53;99420.59;;;12.25;60.95
12897;BME280;6516;35.028;32.372;2023-04-04T02:17:23;99415.25;;;12.27;60.48
12897;BME280;6516;35.028;32.372;2023-04-04T02:19:53;99410.94;;;12.49;57.92
12897;BME280;6516;35.028;32.372;2023-04-04T02:22:21;99407.84;;;12.61;55.60
12897;BME280;6516;35.028;32.372;2023-04-04T02:24:48;99408.88;;;12.57;58.25
12897;BME280;6516;35.028;32.372;2023-04-04T02:27:16;99401.84;;;12.56;57.35
12897;BME280;6516;35.028;32.372;2023-04-04T02:29:44;99389.09;;;12.67;53.12
12897;BME280;6516;35.028;32.372;2023-04-04T02:32:11;99386.69;;;12.84;50.54
12897;BME280;6516;35.028;32.372;2023-04-04T02:34:41;99395.56;;;13.04;50.25
12897;BME280;6516;35.028;32.372;2023-04-04T02:37:09;99383.47;;;13.20;51.71
12897;BME280;6516;35.028;32.372;2023-04-04T02:39:38;99376.13;;;13.27;51.75
12897;BME280;6516;35.028;32.372;2023-04-04T02:42:05;99377.91;;;13.48;49.10
12897;BME280;6516;35.028;32.372;2023-04-04T02:44:33;99379.72;;;13.46;50.12
12897;BME280;6516;35.028;32.372;2023-04-04T02:47:01;99372.41;;;13.52;48.49
12897;BME280;6516;35.028;32.372;2023-04-04T02:49:29;99379.72;;;13.46;49.86
12897;BME280;6516;35.028;32.372;2023-04-04T02:51:58;99373.56;;;13.47;49.49
12897;BME280;6516;35.028;32.372;2023-04-04T02:54:26;99385.22;;;13.41;50.99
12897;BME280;6516;35.028;32.372;2023-04-04T02:56:55;99373.00;;;13.39;50.86
12897;BME280;6516;35.028;32.372;2023-04-04T02:59:23;99378.84;;;13.47;49.63
12897;BME280;6516;35.028;32.372;2023-04-04T03:01:51;99374.00;;;13.56;49.19
12897;BME280;6516;35.028;32.372;2023-04-04T03:04:19;99374.03;;;13.76;46.96
12897;BME280;6516;35.028;32.372;2023-04-04T03:06:47;99366.59;;;13.84;48.44
12897;BME280;6516;35.028;32.372;2023-04-04T03:09:16;99372.31;;;13.95;47.07
12897;BME280;6516;35.028;32.372;2023-04-04T03:11:44;99374.94;;;13.95;47.75
12897;BME280;6516;35.028;32.372;2023-04-04T03:14:11;99370.00;;;13.88;48.06
12897;BME280;6516;35.028;32.372;2023-04-04T03:16:39;99384.53;;;13.78;47.49
12897;BME280;6516;35.028;32.372;2023-04-04T03:19:07;99373.34;;;13.71;48.38
12897;BME280;6516;35.028;32.372;2023-04-04T03:21:35;99373.81;;;13.61;50.32
12897;BME280;6516;35.028;32.372;2023-04-04T03:24:03;99374.34;;;13.49;50.95
12897;BME280;6516;35.028;32.372;2023-04-04T03:26:32;99381.72;;;13.41;52.08
12897;BME280;6516;35.028;32.372;2023-04-04T03:29:00;99376.13;;;13.27;54.23
12897;BME280;6516;35.028;32.372;2023-04-04T03:31:29;99370.38;;;13.17;54.64
12897;BME280;6516;35.028;32.372;2023-04-04T03:33:57;99371.50;;;13.12;55.03
12897;BME280;6516;35.028;32.372;2023-04-04T03:36:25;99376.25;;;13.02;57.39
12897;BME280;6516;35.028;32.372;2023-04-04T03:38:53;99380.06;;;12.95;57.96
12897;BME280;6516;35.028;32.372;2023-04-04T03:41:21;99381.25;;;12.87;58.61
12897;BME280;6516;35.028;32.372;2023-04-04T03:43:50;99383.38;;;12.79;59.70
12897;BME280;6516;35.028;32.372;2023-04-04T03:46:18;99385.38;;;12.72;60.40
12897;BME280;6516;35.028;32.372;2023-04-04T03:48:46;99383.81;;;12.67;61.62
12897;BME280;6516;35.028;32.372;2023-04-04T03:51:14;99385.78;;;12.62;61.01
12897;BME280;6516;35.028;32.372;2023-04-04T03:53:42;99375.16;;;12.63;61.06
12897;BME280;6516;35.028;32.372;2023-04-04T03:56:09;99375.09;;;12.65;61.74
12897;BME280;6516;35.028;32.372;2023-04-04T03:58:37;99382.75;;;12.72;62.15
12897;BME280;6516;35.028;32.372;2023-04-04T04:01:06;99378.19;;;12.76;62.06
12897;BME280;6516;35.028;32.372;2023-04-04T04:03:34;99375.19;;;12.85;61.38
12897;BME280;6516;35.028;32.372;2023-04-04T04:06:02;99370.31;;;12.96;60.63
12897;BME280;6516;35.028;32.372;2023-04-04T04:08:30;99359.31;;;13.08;61.02
12897;BME280;6516;35.028;32.372;2023-04-04T04:11:03;99372.94;;;13.19;61.36
12897;BME280;6516;35.028;32.372;2023-04-04T04:13:31;99364.41;;;13.34;59.54
12897;BME280;6516;35.028;32.372;2023-04-04T04:15:59;99362.81;;;13.50;57.66
12897;BME280;6516;35.028;32.372;2023-04-04T04:18:28;99362.19;;;13.65;56.47
12897;BME280;6516;35.028;32.372;2023-04-04T04:20:57;99349.66;;;13.88;54.06
12897;BME280;6516;35.028;32.372;2023-04-04T04:23:26;99350.50;;;14.09;53.09
12897;BME280;6516;35.028;32.372;2023-04-04T04:25:54;99349.59;;;14.30;52.83
12897;BME280;6516;35.028;32.372;2023-04-04T04:28:22;99347.69;;;14.52;52.40
12897;BME280;6516;35.028;32.372;2023-04-04T04:30:50;99339.19;;;14.81;51.22
12897;BME280;6516;35.028;32.372;2023-04-04T04:33:18;99343.56;;;15.00;51.38
12897;BME280;6516;35.028;32.372;2023-04-04T04:35:47;99342.19;;;15.27;50.75
12897;BME280;6516;35.028;32.372;2023-04-04T04:38:15;99341.06;;;15.50;50.14
12897;BME280;6516;35.028;32.372;2023-04-04T04:40:42;99355.78;;;15.74;50.11
12897;BME280;6516;35.028;32.372;2023-04-04T04:43:10;99342.31;;;15.94;50.68
12897;BME280;6516;35.028;32.372;2023-04-04T04:45:40;99336.03;;;16.12;50.12
12897;BME280;6516;35.028;32.372;2023-04-04T04:48:08;99343.53;;;16.36;49.10
12897;BME280;6516;35.028;32.372;2023-04-04T04:50:36;99335.81;;;16.64;48.81
12897;BME280;6516;35.028;32.372;2023-04-04T04:53:05;99327.25;;;16.90;49.41
12897;BME280;6516;35.028;32.372;2023-04-04T04:55:33;99321.91;;;17.21;48.64
12897;BME280;6516;35.028;32.372;2023-04-04T04:58:01;99321.00;;;17.52;49.30
12897;BME280;6516;35.028;32.372;2023-04-04T05:00:30;99319.44;;;17.77;50.32
12897;BME280;6516;35.028;32.372;2023-04-04T05:02:58;99308.16;;;18.02;49.98
12897;BME280;6516;35.028;32.372;2023-04-04T05:05:26;99316.38;;;18.27;48.05
12897;BME280;6516;35.028;32.372;2023-04-04T05:07:54;99306.78;;;18.52;47.50
12897;BME280;6516;35.028;32.372;2023-04-04T05:10:23;99306.13;;;18.89;47.63
12897;BME280;6516;35.028;32.372;2023-04-04T05:12:51;99313.38;;;19.14;47.01
12897;BME280;6516;35.028;32.372;2023-04-04T05:15:21;99314.34;;;19.39;46.27
12897;BME280;6516;35.028;32.372;2023-04-04T05:17:50;99299.59;;;19.73;44.25
12897;BME280;6516;35.028;32.372;2023-04-04T05:20:18;99309.31;;;19.99;47.36
12897;BME280;6516;35.028;32.372;2023-04-04T05:22:46;99295.13;;;20.11;45.76
12897;BME280;6516;35.028;32.372;2023-04-04T05:25:14;99309.78;;;20.18;49.06
12897;BME280;6516;35.028;32.372;2023-04-04T05:27:45;99308.38;;;20.25;47.06
12897;BME280;6516;35.028;32.372;2023-04-04T05:30:14;99300.13;;;20.41;41.78
12897;BME280;6516;35.028;32.372;2023-04-04T05:32:43;99293.88;;;20.65;46.17
12897;BME280;6516;35.028;32.372;2023-04-04T05:35:11;99296.94;;;20.84;46.65
12897;BME280;6516;35.028;32.372;2023-04-04T05:37:39;99300.66;;;21.07;46.85
12897;BME280;6516;35.028;32.372;2023-04-04T05:40:08;99293.84;;;21.37;46.61
12897;BME280;6516;35.028;32.372;2023-04-04T05:42:36;99292.97;;;21.60;45.44
12897;BME280;6516;35.028;32.372;2023-04-04T05:45:06;99292.56;;;21.77;44.47
12897;BME280;6516;35.028;32.372;2023-04-04T05:47:35;99299.19;;;21.95;41.16
12897;BME280;6516;35.028;32.372;2023-04-04T05:50:03;99283.38;;;22.14;41.74
12897;BME280;6516;35.028;32.372;2023-04-04T05:52:31;99298.72;;;22.34;41.41
12897;BME280;6516;35.028;32.372;2023-04-04T05:54:58;99302.31;;;22.46;40.63
12897;BME280;6516;35.028;32.372;2023-04-04T05:57:26;99310.84;;;22.51;40.52
12897;BME280;6516;35.028;32.372;2023-04-04T05:59:54;99312.94;;;22.58;41.06
12897;BME280;6516;35.028;32.372;2023-04-04T06:02:23;99307.09;;;22.53;41.11
12897;BME280;6516;35.028;32.372;2023-04-04T06:04:51;99306.34;;;22.62;43.00
12897;BME280;6516;35.028;32.372;2023-04-04T06:07:19;99311.94;;;22.59;44.93
12897;BME280;6516;35.028;32.372;2023-04-04T06:09:46;99304.63;;;22.61;46.22
12897;BME280;6516;35.028;32.372;2023-04-04T06:12:14;99305.34;;;22.74;46.82
12897;BME280;6516;35.028;32.372;2023-04-04T06:14:42;99304.09;;;22.89;47.05
12897;BME280;6516;35.028;32.372;2023-04-04T06:17:10;99303.63;;;22.95;47.21
12897;BME280;6516;35.028;32.372;2023-04-04T06:19:39;99313.69;;;23.14;48.09
12897;BME280;6516;35.028;32.372;2023-04-04T06:22:07;99312.34;;;23.30;46.85
12897;BME280;6516;35.028;32.372;2023-04-04T06:24:34;99311.53;;;23.50;45.64
12897;BME280;6516;35.028;32.372;2023-04-04T06:27:02;99312.44;;;23.71;45.11
12897;BME280;6516;35.028;32.372;2023-04-04T06:29:30;99320.25;;;23.95;45.21
12897;BME280;6516;35.028;32.372;2023-04-04T06:31:58;99317.50;;;24.26;45.40
12897;BME280;6516;35.028;32.372;2023-04-04T06:34:25;99311.41;;;24.54;44.25
12897;BME280;6516;35.028;32.372;2023-04-04T06:36:55;99316.81;;;24.84;43.05
12897;BME280;6516;35.028;32.372;2023-04-04T06:39:22;99313.22;;;25.14;40.45
12897;BME280;6516;35.028;32.372;2023-04-04T06:41:50;99313.94;;;25.25;43.37
12897;BME280;6516;35.028;32.372;2023-04-04T06:44:18;99318.22;;;25.56;43.41
12897;BME280;6516;35.028;32.372;2023-04-04T06:46:46;99314.09;;;25.81;43.36
12897;BME280;6516;35.028;32.372;2023-04-04T06:49:13;99304.31;;;26.08;41.94
12897;BME280;6516;35.028;32.372;2023-04-04T06:51:41;99307.09;;;26.35;41.63
12897;BME280;6516;35.028;32.372;2023-04-04T06:54:10;99306.03;;;26.65;40.79
12897;BME280;6516;35.028;32.372;2023-04-04T06:56:38;99301.19;;;26.95;41.09
12897;BME280;6516;35.028;32.372;2023-04-04T06:59:06;99304.47;;;27.17;42.09
12897;BME280;6516;35.028;32.372;2023-04-04T07:01:36;99299.59;;;27.47;41.21
12897;BME280;6516;35.028;32.372;2023-04-04T07:04:03;99297.19;;;27.62;40.53
12897;BME280;6516;35.028;32.372;2023-04-04T07:06:31;99294.34;;;27.81;38.37
12897;BME280;6516;35.028;32.372;2023-04-04T07:08:59;99290.34;;;28.10;33.43
12897;BME280;6516;35.028;32.372;2023-04-04T07:11:29;99293.75;;;28.12;34.70
12897;BME280;6516;35.028;32.372;2023-04-04T07:13:57;99288.75;;;28.43;31.93
12897;BME280;6516;35.028;32.372;2023-04-04T07:16:24;99292.59;;;28.66;29.07
12897;BME280;6516;35.028;32.372;2023-04-04T07:18:54;99284.22;;;28.85;27.06
12897;BME280;6516;35.028;32.372;2023-04-04T07:21:22;99296.53;;;29.13;34.02
12897;BME280;6516;35.028;32.372;2023-04-04T07:23:50;99298.59;;;29.11;27.84
12897;BME280;6516;35.028;32.372;2023-04-04T07:26:18;99288.81;;;29.34;30.70
12897;BME280;6516;35.028;32.372;2023-04-04T07:28:48;99298.63;;;29.27;22.88
12897;BME280;6516;35.028;32.372;2023-04-04T07:31:16;99289.69;;;29.50;23.92
12897;BME280;6516;35.028;32.372;2023-04-04T07:33:44;99305.59;;;29.37;34.67
12897;BME280;6516;35.028;32.372;2023-04-04T07:36:11;99290.78;;;29.24;31.53
12897;BME280;6516;35.028;32.372;2023-04-04T07:38:39;99290.16;;;29.38;24.12
12897;BME280;6516;35.028;32.372;2023-04-04T07:41:07;99286.31;;;29.56;22.79
12897;BME280;6516;35.028;32.372;2023-04-04T07:43:36;99285.94;;;29.51;25.12
12897;BME280;6516;35.028;32.372;2023-04-04T07:46:05;99274.78;;;29.62;22.35
12897;BME280;6516;35.028;32.372;2023-04-04T07:48:33;99277.84;;;29.75;22.54
12897;BME280;6516;35.028;32.372;2023-04-04T07:51:01;99268.03;;;29.82;21.68
12897;BME280;6516;35.028;32.372;2023-04-04T07:53:30;99274.66;;;29.80;21.27
12897;BME280;6516;35.028;32.372;2023-04-04T07:55:58;99268.38;;;29.95;21.50
12897;BME280;6516;35.028;32.372;2023-04-04T07:58:31;99272.94;;;29.71;21.92
12897;BME280;6516;35.028;32.372;2023-04-04T08:00:59;99259.53;;;29.69;21.78
12897;BME280;6516;35.028;32.372;2023-04-04T08:03:28;99268.81;;;29.51;21.58
12897;BME280;6516;35.028;32.372;2023-04-04T08:05:56;99272.34;;;29.27;20.45
12897;BME280;6516;35.028;32.372;2023-04-04T08:08:23;99246.72;;;29.22;20.32
12897;BME280;6516;35.028;32.372;2023-04-04T08:10:51;99268.44;;;29.22;20.77
12897;BME280;6516;35.028;32.372;2023-04-04T08:13:19;99252.53;;;29.35;21.40
12897;BME280;6516;35.028;32.372;2023-04-04T08:15:47;99236.09;;;29.76;21.83
12897;BME280;6516;35.028;32.372;2023-04-04T08:18:15;99258.00;;;29.67;20.29
12897;BME280;6516;35.028;32.372;2023-04-04T08:20:45;99243.41;;;29.68;21.33
12897;BME280;6516;35.028;32.372;2023-04-04T08:23:13;99251.56;;;29.84;21.14
12897;BME280;6516;35.028;32.372;2023-04-04T08:25:41;99247.66;;;29.62;19.68
12897;BME280;6516;35.028;32.372;2023-04-04T08:28:10;99249.19;;;29.73;20.63
12897;BME280;6516;35.028;32.372;2023-04-04T08:30:38;99251.88;;;29.49;20.24
12897;BME280;6516;35.028;32.372;2023-04-04T08:33:06;99251.19;;;29.55;20.78
12897;BME280;6516;35.028;32.372;2023-04-04T08:35:34;99251.53;;;29.52;19.87
12897;BME280;6516;35.028;32.372;2023-04-04T08:38:03;99252.38;;;29.52;20.33
12897;BME280;6516;35.028;32.372;2023-04-04T08:40:33;99262.75;;;29.73;20.21
12897;BME280;6516;35.028;32.372;2023-04-04T08:43:01;99251.91;;;29.97;20.40
12897;BME280;6516;35.028;32.372;2023-04-04T08:45:31;99249.69;;;29.84;19.47
12897;BME280;6516;35.028;32.372;2023-04-04T08:48:01;99264.63;;;29.88;19.83
12897;BME280;6516;35.028;32.372;2023-04-04T08:50:30;99253.75;;;30.12;20.65
12897;BME280;6516;35.028;32.372;2023-04-04T08:52:58;99234.56;;;30.30;20.29
12897;BME280;6516;35.028;32.372;2023-04-04T08:55:30;99238.81;;;30.08;19.01
12897;BME280;6516;35.028;32.372;2023-04-04T08:57:58;99261.06;;;29.72;19.14
12897;BME280;6516;35.028;32.372;2023-04-04T09:00:26;99265.13;;;29.76;19.99
12897;BME280;6516;35.028;32.372;2023-04-04T09:02:59;99263.13;;;29.70;19.68
12897;BME280;6516;35.028;32.372;2023-04-04T09:05:33;99252.19;;;29.46;19.62
12897;BME280;6516;35.028;32.372;2023-04-04T09:08:02;99252.88;;;29.48;20.66
12897;BME280;6516;35.028;32.372;2023-04-04T09:10:33;99253.06;;;29.54;20.07
12897;BME280;6516;35.028;32.372;2023-04-04T09:13:02;99254.47;;;29.58;21.24
12897;BME280;6516;35.028;32.372;2023-04-04T09:15:32;99252.75;;;29.57;21.17
12897;BME280;6516;35.028;32.372;2023-04-04T09:18:00;99255.59;;;29.48;21.49
12897;BME280;6516;35.028;32.372;2023-04-04T09:20:38;99265.13;;;29.60;22.67
12897;BME280;6516;35.028;32.372;2023-04-04T09:23:07;99271.56;;;29.59;22.35
12897;BME280;6516;35.028;32.372;2023-04-04T09:25:43;99276.13;;;29.50;22.21
12897;BME280;6516;35.028;32.372;2023-04-04T09:28:14;99294.25;;;29.50;22.42
12897;BME280;6516;35.028;32.372;2023-04-04T09:30:42;99308.59;;;29.26;21.35
12897;BME280;6516;35.028;32.372;2023-04-04T09:33:11;99288.56;;;29.11;22.21
12897;BME280;6516;35.028;32.372;2023-04-04T09:35:44;99303.69;;;29.22;22.62
12897;BME280;6516;35.028;32.372;2023-04-04T09:38:14;99296.13;;;29.49;21.71
12897;BME280;6516;35.028;32.372;2023-04-04T09:40:45;99281.75;;;29.65;21.80
12897;BME280;6516;35.028;32.372;2023-04-04T09:43:13;99274.63;;;29.64;21.87
12897;BME280;6516;35.028;32.372;2023-04-04T09:45:43;99271.25;;;29.86;22.35
12897;BME280;6516;35.028;32.372;2023-04-04T09:48:12;99275.56;;;29.47;21.62
12897;BME280;6516;35.028;32.372;2023-04-04T09:50:45;99277.16;;;29.57;21.98
12897;BME280;6516;35.028;32.372;2023-04-04T09:53:15;99273.38;;;29.42;20.44
12897;BME280;6516;35.028;32.372;2023-04-04T09:55:50;99268.09;;;29.33;21.58
12897;BME280;6516;35.028;32.372;2023-04-04T09:58:23;99275.31;;;29.58;21.44
12897;BME280;6516;35.028;32.372;2023-04-04T10:00:54;99271.75;;;29.65;21.07
12897;BME280;6516;35.028;32.372;2023-04-04T10:03:23;99306.06;;;29.17;21.52
12897;BME280;6516;35.028;32.372;2023-04-04T10:05:55;99298.91;;;29.08;21.69
12897;BME280;6516;35.028;32.372;2023-04-04T10:08:26;99305.81;;;29.02;21.60
12897;BME280;6516;35.028;32.372;2023-04-04T10:11:00;99310.63;;;28.83;21.77
12897;BME280;6516;35.028;32.372;2023-04-04T10:13:30;99305.41;;;28.89;22.19
12897;BME280;6516;35.028;32.372;2023-04-04T10:16:01;99294.84;;;28.78;22.60
12897;BME280;6516;35.028;32.372;2023-04-04T10:18:31;99300.06;;;28.72;22.82
12897;BME280;6516;35.028;32.372;2023-04-04T10:21:01;99298.03;;;28.66;21.75
12897;BME280;6516;35.028;32.372;2023-04-04T10:23:29;99291.63;;;28.75;21.65
12897;BME280;6516;35.028;32.372;2023-04-04T10:26:01;99289.75;;;29.09;22.97
12897;BME280;6516;35.028;32.372;2023-04-04T10:28:29;99267.03;;;29.02;20.93
12897;BME280;6516;35.028;32.372;2023-04-04T10:31:03;99281.84;;;28.90;19.13
12897;BME280;6516;35.028;32.372;2023-04-04T10:33:39;99280.16;;;28.97;19.88
12897;BME280;6516;35.028;32.372;2023-04-04T10:36:13;99291.59;;;29.08;20.76
12897;BME280;6516;35.028;32.372;2023-04-04T10:38:50;99297.53;;;29.04;20.90
12897;BME280;6516;35.028;32.372;2023-04-04T10:41:26;99292.81;;;29.14;20.52
12897;BME280;6516;35.028;32.372;2023-04-04T10:43:59;99272.31;;;29.19;20.25
12897;BME280;6516;35.028;32.372;2023-04-04T10:46:37;99273.75;;;28.98;20.86
12897;BME280;6516;35.028;32.372;2023-04-04T10:49:09;99279.91;;;29.08;22.52
12897;BME280;6516;35.028;32.372;2023-04-04T10:51:37;99278.91;;;29.09;20.47
12897;BME280;6516;35.028;32.372;2023-04-04T10:54:05;99268.97;;;29.33;20.96
12897;BME280;6516;35.028;32.372;2023-04-04T10:56:35;99261.31;;;29.37;22.14
12897;BME280;6516;35.028;32.372;2023-04-04T10:59:11;99235.75;;;29.31;21.18
12897;BME280;6516;35.028;32.372;2023-04-04T11:01:47;99248.09;;;29.26;21.58
12897;BME280;6516;35.028;32.372;2023-04-04T11:04:16;99248.41;;;29.15;20.44
12897;BME280;6516;35.028;32.372;2023-04-04T11:07:10;99238.84;;;28.95;22.30
12897;BME280;6516;35.028;32.372;2023-04-04T11:09:49;99250.97;;;28.75;20.65
12897;BME280;6516;35.028;32.372;2023-04-04T11:12:26;99225.25;;;28.87;21.06
12897;BME280;6516;35.028;32.372;2023-04-04T11:15:09;99258.63;;;28.87;21.66
12897;BME280;6516;35.028;32.372;2023-04-04T11:17:57;99254.09;;;28.96;20.77
12897;BME280;6516;35.028;32.372;2023-04-04T11:20:30;99265.63;;;28.56;23.56
12897;BME280;6516;35.028;32.372;2023-04-04T11:23:17;99280.28;;;28.20;29.61
12897;BME280;6516;35.028;32.372;2023-04-04T11:25:51;99287.34;;;27.61;34.03
12897;BME280;6516;35.028;32.372;2023-04-04T11:28:27;99280.56;;;27.22;35.26
12897;BME280;6516;35.028;32.372;2023-04-04T11:31:24;99270.91;;;26.65;37.28
12897;BME280;6516;35.028;32.372;2023-04-04T11:33:59;99285.88;;;25.37;40.25
12897;BME280;6516;35.028;32.372;2023-04-04T11:36:48;99298.59;;;24.67;42.93
12897;BME280;6516;35.028;32.372;2023-04-04T11:39:25;99301.66;;;25.02;43.75
12897;BME280;6516;35.028;32.372;2023-04-04T11:41:55;99300.28;;;25.17;44.55
12897;BME280;6516;35.028;32.372;2023-04-04T11:44:30;99304.88;;;25.26;45.02
12897;BME280;6516;35.028;32.372;2023-04-04T11:47:01;99297.41;;;24.90;46.35
12897;BME280;6516;35.028;32.372;2023-04-04T11:49:37;99312.78;;;24.49;47.69
12897;BME280;6516;35.028;32.372;2023-04-04T11:52:06;99305.56;;;24.79;47.61
12897;BME280;6516;35.028;32.372;2023-04-04T11:54:36;99322.22;;;24.64;48.53
12897;BME280;6516;35.028;32.372;2023-04-04T11:57:05;99301.69;;;24.42;49.18
12897;BME280;6516;35.028;32.372;2023-04-04T11:59:38;99298.84;;;24.14;51.04
12897;BME280;6516;35.028;32.372;2023-04-04T12:02:07;99311.25;;;23.85;51.77
12897;BME280;6516;35.028;32.372;2023-04-04T12:04:36;99301.34;;;23.85;52.53
12897;BME280;6516;35.028;32.372;2023-04-04T12:07:06;99301.19;;;23.87;53.28
12897;BME280;6516;35.028;32.372;2023-04-04T12:09:34;99311.19;;;23.96;53.84
12897;BME280;6516;35.028;32.372;2023-04-04T12:12:02;99313.56;;;23.58;54.90
12897;BME280;6516;35.028;32.372;2023-04-04T12:14:33;99290.59;;;23.85;54.92
12897;BME280;6516;35.028;32.372;2023-04-04T12:17:01;99314.13;;;23.72;55.53
12897;BME280;6516;35.028;32.372;2023-04-04T12:19:29;99330.72;;;23.77;55.92
12897;BME280;6516;35.028;32.372;2023-04-04T12:21:57;99325.97;;;23.49;57.07
12897;BME280;6516;35.028;32.372;2023-04-04T12:24:25;99335.56;;;23.09;58.04
12897;BME280;6516;35.028;32.372;2023-04-04T12:26:53;99328.66;;;22.63;59.46
12897;BME280;6516;35.028;32.372;2023-04-04T12:29:25;99333.53;;;22.69;60.53
12897;BME280;6516;35.028;32.372;2023-04-04T12:31:55;99338.47;;;22.18;61.29
12897;BME280;6516;35.028;32.372;2023-04-04T12:34:23;99351.44;;;21.90;63.40
12897;BME280;6516;35.028;32.372;2023-04-04T12:36:55;99340.28;;;22.07;63.02
12897;BME280;6516;35.028;32.372;2023-04-04T12:39:25;99334.66;;;22.10;63.76
12897;BME280;6516;35.028;32.372;2023-04-04T12:41:56;99341.88;;;22.09;63.70
12897;BME280;6516;35.028;32.372;2023-04-04T12:44:26;99342.84;;;22.08;64.52
12897;BME280;6516;35.028;32.372;2023-04-04T12:46:58;99342.63;;;21.77;64.10
12897;BME280;6516;35.028;32.372;2023-04-04T12:49:28;99336.16;;;21.79;65.75
12897;BME280;6516;35.028;32.372;2023-04-04T12:51:57;99347.28;;;21.86;64.67
12897;BME280;6516;35.028;32.372;2023-04-04T12:54:33;99341.66;;;21.78;65.90
12897;BME280;6516;35.028;32.372;2023-04-04T12:57:03;99356.47;;;22.05;64.63
12897;BME280;6516;35.028;32.372;2023-04-04T12:59:33;99343.94;;;22.06;65.12
12897;BME280;6516;35.028;32.372;2023-04-04T13:02:06;99363.81;;;22.25;64.00
12897;BME280;6516;35.028;32.372;2023-04-04T13:04:35;99360.50;;;22.45;62.23
12897;BME280;6516;35.028;32.372;2023-04-04T13:07:18;99365.63;;;22.14;63.73
12897;BME280;6516;35.028;32.372;2023-04-04T13:09:51;99381.09;;;22.10;64.31
12897;BME280;6516;35.028;32.372;2023-04-04T13:12:19;99384.19;;;21.82;65.91